Time;durP1;ratioP1;P1;durP2;ratioP2;P2;SDS_P1;SDS_P2;PMS_P1;PMS_P2;Temp;Humidity;BMP_temperature;BMP_pressure;BME280_temperature;BME280_humidity;BME280_pressure;Samples;Min_cycle;Max_cycle;Signal;HPM_P1;HPM_P2
2021/01/05 00:01:35;;;;;;;81.57;22.20;;;-0.60;96.30;;;;;;4954204;29;20864;-85
2021/01/05 00:04:00;;;;;;;144.57;20.10;;;-0.50;96.30;;;;;;4957443;29;20730;-85
2021/01/05 00:06:26;;;;;;;73.07;18.57;;;-0.60;96.30;;;;;;4957318;29;20249;-85
2021/01/05 00:08:52;;;;;;;59.80;20.00;;;-0.60;96.30;;;;;;4958031;29;20179;-86
2021/01/05 00:11:17;;;;;;;65.60;20.67;;;-0.60;96.30;;;;;;4959040;29;20523;-85
2021/01/05 00:13:43;;;;;;;84.63;20.60;;;-0.60;96.30;;;;;;4957504;29;20430;-84
2021/01/05 00:16:08;;;;;;;57.97;21.60;;;-0.60;96.30;;;;;;4957690;29;20369;-84
2021/01/05 00:18:34;;;;;;;43.10;18.83;;;-0.60;96.30;;;;;;4957581;29;20633;-85
2021/01/05 00:20:59;;;;;;;53.37;18.27;;;-0.60;96.30;;;;;;4957698;29;20219;-85
2021/01/05 00:23:25;;;;;;;50.23;18.47;;;-0.50;96.30;;;;;;4958460;29;20639;-85
2021/01/05 00:25:50;;;;;;;128.23;18.47;;;-0.60;96.30;;;;;;4953910;29;20182;-84
2021/01/05 00:28:16;;;;;;;66.07;20.50;;;-0.60;96.30;;;;;;4938036;29;20270;-85
2021/01/05 00:30:41;;;;;;;75.17;18.10;;;-0.60;96.30;;;;;;4939263;29;20172;-85
2021/01/05 00:33:07;;;;;;;38.07;15.07;;;-0.60;96.30;;;;;;4939046;29;20234;-84
2021/01/05 00:35:35;;;;;;;55.70;19.20;;;-0.60;96.30;;;;;;4949551;29;20235;-85
2021/01/05 00:38:04;;;;;;;40.30;16.90;;;-0.60;96.30;;;;;;4976076;29;20422;-85
2021/01/05 00:40:29;;;;;;;458.30;22.90;;;-0.60;96.30;;;;;;4974871;28;20461;-85
2021/01/05 00:42:55;;;;;;;533.37;24.37;;;-0.50;96.30;;;;;;4957451;29;20415;-85
2021/01/05 00:45:32;;;;;;;170.00;17.67;;;-0.60;96.30;;;;;;4953624;29;20179;-85
2021/01/05 00:47:59;;;;;;;91.17;20.73;;;-0.60;96.30;;;;;;4938020;29;20203;-85
2021/01/05 00:50:25;;;;;;;112.57;19.80;;;-0.60;96.30;;;;;;4955369;29;20521;-85
2021/01/05 00:52:51;;;;;;;61.17;18.57;;;-0.60;96.30;;;;;;4936847;29;21010;-85
2021/01/05 00:55:17;;;;;;;75.30;20.00;;;-0.60;96.30;;;;;;4937919;29;20455;-86
2021/01/05 00:57:44;;;;;;;30.57;14.90;;;-0.60;96.30;;;;;;4957557;29;20223;-85
2021/01/05 05:02:29;;;;;;;98.20;13.77;;;-0.70;96.30;;;;;;5032098;23;20490;-73
2021/01/05 05:05:18;;;;;;;67.50;13.13;;;-0.60;96.30;;;;;;4965595;28;20444;-73
2021/01/05 05:08:21;;;;;;;94.07;14.63;;;-0.60;96.30;;;;;;4956931;28;20449;-73
2021/01/05 05:11:03;;;;;;;75.20;14.00;;;-0.60;96.30;;;;;;4951178;28;20438;-73
2021/01/05 05:14:05;;;;;;;52.93;13.70;;;-0.60;96.30;;;;;;4937245;29;20419;-73
2021/01/05 05:16:45;;;;;;;39.40;13.27;;;-0.60;96.30;;;;;;4924331;29;20426;-72
2021/01/05 05:19:41;;;;;;;104.73;15.70;;;-0.60;96.30;;;;;;4937285;28;20923;-73
2021/01/05 05:22:14;;;;;;;89.93;14.20;;;-0.60;96.30;;;;;;4936915;29;20451;-72
2021/01/05 05:25:00;;;;;;;119.80;14.70;;;-0.60;96.30;;;;;;4936391;29;20466;-73
2021/01/05 05:27:50;;;;;;;32.47;12.50;;;-0.60;96.30;;;;;;4935622;29;20757;-72
2021/01/05 05:30:33;;;;;;;56.60;13.20;;;-0.60;96.30;;;;;;4936915;29;20403;-72
2021/01/05 05:33:00;;;;;;;44.30;12.10;;;-0.60;96.30;;;;;;4935631;29;20427;-72
2021/01/05 05:35:55;;;;;;;33.13;10.50;;;-0.60;96.30;;;;;;4936220;29;20407;-73
2021/01/05 05:38:28;;;;;;;71.17;13.53;;;-0.60;96.30;;;;;;4935513;29;20427;-72
2021/01/05 05:41:11;;;;;;;78.83;15.50;;;-0.60;96.30;;;;;;4936434;29;20467;-73
2021/01/05 05:43:58;;;;;;;119.73;15.53;;;-0.60;96.30;;;;;;4936627;29;20423;-72
2021/01/05 05:46:37;;;;;;;556.13;22.00;;;-0.60;96.30;;;;;;4936082;29;20407;-72
2021/01/05 05:49:16;;;;;;;543.53;21.50;;;-0.60;96.30;;;;;;4936520;29;20407;-72
2021/01/05 05:51:47;;;;;;;108.53;10.57;;;-0.60;96.30;;;;;;4936554;29;20942;-73
2021/01/05 05:54:21;;;;;;;100.10;14.93;;;-0.60;96.30;;;;;;4935931;29;20415;-72
2021/01/05 05:57:05;;;;;;;37.53;12.33;;;-0.60;96.30;;;;;;4936136;29;20399;-73
2021/01/05 05:59:39;;;;;;;182.00;15.00;;;-0.50;96.30;;;;;;4936288;29;20891;-73
2021/01/05 06:02:05;;;;;;;147.33;12.03;;;-0.60;96.30;;;;;;4936136;29;20450;-73
2021/01/05 06:04:33;;;;;;;277.43;15.60;;;-0.60;96.30;;;;;;4935755;29;20423;-73
2021/01/05 06:06:58;;;;;;;206.13;16.67;;;-0.60;96.30;;;;;;4936135;29;20239;-72
2021/01/05 06:09:24;;;;;;;82.07;14.50;;;-0.60;96.30;;;;;;4936150;29;20415;-72
2021/01/05 06:11:54;;;;;;;353.20;17.30;;;-0.60;96.30;;;;;;4935972;29;20198;-72
2021/01/05 06:14:19;;;;;;;128.43;15.77;;;-0.60;96.30;;;;;;4935538;29;20175;-72
2021/01/05 06:16:45;;;;;;;316.67;17.20;;;-0.60;96.30;;;;;;4935945;29;20487;-73
2021/01/05 06:19:10;;;;;;;158.90;14.97;;;-0.60;96.30;;;;;;4935972;29;20172;-72
2021/01/05 06:21:36;;;;;;;135.13;16.60;;;-0.60;96.30;;;;;;4935775;29;20212;-72
2021/01/05 06:24:01;;;;;;;165.73;13.87;;;-0.60;96.30;;;;;;4950472;29;20180;-73
2021/01/05 06:26:27;;;;;;;177.37;16.07;;;-0.60;96.30;;;;;;4935282;29;20208;-74
2021/01/05 06:28:52;;;;;;;290.80;15.97;;;-0.60;96.30;;;;;;4935751;29;20209;-72
2021/01/05 06:31:18;;;;;;;124.03;12.40;;;-0.60;96.30;;;;;;4935656;29;20195;-73
2021/01/05 06:33:43;;;;;;;173.40;14.73;;;-0.60;96.30;;;;;;4935695;29;20745;-73
2021/01/05 06:36:09;;;;;;;234.57;17.47;;;-0.60;96.30;;;;;;4935072;29;20190;-72
2021/01/05 06:38:35;;;;;;;106.73;14.30;;;-0.60;96.30;;;;;;4935616;29;20210;-72
2021/01/05 06:41:00;;;;;;;193.33;13.03;;;-0.50;96.30;;;;;;4935278;29;20269;-72
2021/01/05 06:43:26;;;;;;;315.67;17.33;;;-0.60;96.30;;;;;;4935483;29;20168;-73
2021/01/05 06:45:51;;;;;;;363.63;19.03;;;-0.60;96.30;;;;;;4934856;29;20183;-72
2021/01/05 06:48:17;;;;;;;287.77;13.27;;;-0.60;96.30;;;;;;4935484;29;20671;-73
2021/01/05 06:50:42;;;;;;;227.90;14.13;;;-0.60;96.30;;;;;;4935241;29;20199;-73
2021/01/05 06:53:08;;;;;;;262.83;15.40;;;-0.60;96.30;;;;;;4935371;29;20315;-74
2021/01/05 06:55:33;;;;;;;391.47;18.07;;;-0.60;96.30;;;;;;4934736;29;20179;-73
2021/01/05 06:57:59;;;;;;;305.90;16.60;;;-0.60;96.30;;;;;;4950093;29;20710;-73
2021/01/05 07:00:27;;;;;;;209.53;12.33;;;-0.60;96.30;;;;;;4934966;29;20211;-73
2021/01/05 07:02:54;;;;;;;306.47;15.83;;;-0.60;96.30;;;;;;4935253;29;20266;-73
2021/01/05 07:05:20;;;;;;;321.23;15.47;;;-0.60;96.30;;;;;;4934745;29;20471;-73
2021/01/05 07:07:46;;;;;;;761.17;24.47;;;-0.60;96.30;;;;;;4934858;29;20418;-72
2021/01/05 07:10:14;;;;;;;320.80;16.60;;;-0.60;96.30;;;;;;4934937;29;20407;-72
2021/01/05 07:12:39;;;;;;;508.13;20.80;;;-0.50;96.30;;;;;;4935780;29;20426;-72
2021/01/05 07:15:07;;;;;;;736.83;23.47;;;-0.60;96.30;;;;;;4934616;29;20412;-73
2021/01/05 07:17:33;;;;;;;390.10;15.83;;;-0.60;96.30;;;;;;4934827;29;20669;-73
2021/01/05 07:19:59;;;;;;;167.73;14.63;;;-0.60;96.30;;;;;;4934116;29;21053;-73
2021/01/05 07:22:25;;;;;;;47.97;12.07;;;-0.60;96.30;;;;;;4934982;29;20522;-72
2021/01/05 07:24:50;;;;;;;430.60;18.23;;;-0.60;96.30;;;;;;4934789;29;20636;-72
2021/01/05 07:27:15;;;;;;;291.87;17.33;;;-0.60;96.30;;;;;;4934881;29;20586;-73
2021/01/05 07:29:41;;;;;;;479.87;19.37;;;-0.60;96.30;;;;;;4934961;29;20190;-75
2021/01/05 07:32:06;;;;;;;428.43;17.53;;;-0.60;96.30;;;;;;4933103;29;20211;-74
2021/01/05 07:34:37;;;;;;;337.17;16.07;;;-0.60;96.30;;;;;;4934070;29;20609;-74
2021/01/05 07:37:03;;;;;;;269.57;13.60;;;-0.60;96.30;;;;;;4934403;29;20187;-73
2021/01/05 07:39:31;;;;;;;524.40;19.87;;;-0.60;96.30;;;;;;4933546;29;20419;-73
2021/01/05 07:42:17;;;;;;;684.27;23.03;;;-0.60;96.30;;;;;;4935001;29;20443;-73
2021/01/05 07:44:44;;;;;;;529.93;20.37;;;-0.60;96.30;;;;;;4934522;29;20420;-73
2021/01/05 07:47:10;;;;;;;404.93;16.53;;;-0.60;96.30;;;;;;4934639;29;20469;-74
2021/01/05 07:49:36;;;;;;;449.80;18.00;;;-0.60;96.30;;;;;;4933321;29;20841;-73
2021/01/05 07:52:14;;;;;;;192.50;13.30;;;-0.60;96.30;;;;;;4934546;29;20712;-74
2021/01/05 07:54:40;;;;;;;467.57;16.83;;;-0.60;96.30;;;;;;4934793;29;20223;-74
2021/01/05 07:57:05;;;;;;;550.77;18.87;;;-0.60;96.30;;;;;;4934793;29;20416;-74
2021/01/05 07:59:31;;;;;;;512.73;18.87;;;-0.60;96.30;;;;;;4934701;29;20179;-74
2021/01/05 08:01:56;;;;;;;483.73;19.40;;;-0.50;96.30;;;;;;4933385;29;20223;-73
2021/01/05 08:04:22;;;;;;;559.70;20.00;;;-0.60;96.30;;;;;;4934630;29;20188;-73
2021/01/05 08:06:47;;;;;;;535.70;20.30;;;-0.60;96.30;;;;;;4932323;29;20215;-73
2021/01/05 08:09:13;;;;;;;367.93;15.80;;;-0.50;96.30;;;;;;4934451;29;20194;-73
2021/01/05 08:11:38;;;;;;;291.87;14.03;;;-0.50;96.30;;;;;;4934730;29;20275;-74
2021/01/05 08:14:05;;;;;;;402.00;17.00;;;-0.50;96.30;;;;;;4934642;29;20592;-73
2021/01/05 08:16:31;;;;;;;368.57;17.43;;;-0.50;96.30;;;;;;4934414;29;20446;-73
2021/01/05 08:18:56;;;;;;;371.80;17.63;;;-0.50;96.30;;;;;;4934150;29;20473;-74
2021/01/05 08:21:23;;;;;;;338.87;16.43;;;-0.50;96.30;;;;;;4937806;29;20463;-73
2021/01/05 08:23:49;;;;;;;531.87;20.30;;;-0.50;96.30;;;;;;4938046;29;20255;-74
2021/01/05 08:26:14;;;;;;;263.13;14.67;;;-0.50;96.30;;;;;;4938002;29;20439;-74
2021/01/05 08:28:40;;;;;;;258.00;14.37;;;-0.50;96.30;;;;;;4938178;29;20175;-74
2021/01/05 08:31:05;;;;;;;105.27;12.20;;;-0.50;96.30;;;;;;4936782;29;20290;-74
2021/01/05 08:33:31;;;;;;;325.47;15.23;;;-0.40;96.30;;;;;;4952750;29;20214;-73
2021/01/05 08:35:57;;;;;;;186.97;14.30;;;-0.40;96.30;;;;;;4936484;29;20242;-73
2021/01/05 08:38:22;;;;;;;270.77;15.23;;;-0.30;96.30;;;;;;4937514;29;20213;-73
2021/01/05 08:40:48;;;;;;;233.50;15.07;;;-0.30;96.30;;;;;;4936237;29;20572;-75
2021/01/05 08:43:13;;;;;;;326.77;16.00;;;-0.30;96.30;;;;;;4936923;29;20199;-74
2021/01/05 08:45:41;;;;;;;143.00;14.00;;;-0.30;96.30;;;;;;4935493;29;20193;-74
2021/01/05 08:48:08;;;;;;;146.07;11.33;;;-0.30;96.30;;;;;;4937336;29;20254;-73
2021/01/05 08:50:34;;;;;;;305.33;15.30;;;-0.30;96.30;;;;;;4936317;29;20443;-74
2021/01/05 08:53:04;;;;;;;167.13;13.03;;;-0.20;96.30;;;;;;4937634;29;20418;-74
2021/01/05 08:55:33;;;;;;;365.53;15.97;;;-0.20;96.30;;;;;;4937326;29;20266;-74
2021/01/05 08:57:58;;;;;;;154.33;13.47;;;-0.30;96.30;;;;;;4937556;29;20424;-74
2021/01/05 09:00:24;;;;;;;53.53;11.67;;;-0.30;96.30;;;;;;4937310;29;20526;-74
2021/01/05 09:02:49;;;;;;;42.13;8.90;;;-0.30;96.30;;;;;;4935864;29;20192;-73
2021/01/05 09:05:15;;;;;;;215.80;14.17;;;-0.20;96.30;;;;;;4935321;29;20202;-73
2021/01/05 09:07:40;;;;;;;131.90;12.13;;;-0.20;96.30;;;;;;4937283;29;20268;-74
2021/01/05 09:10:08;;;;;;;163.80;11.10;;;-0.20;96.30;;;;;;4936117;29;20203;-73
2021/01/05 09:12:35;;;;;;;328.83;15.70;;;-0.30;96.30;;;;;;4937374;29;20666;-73
2021/01/05 09:15:03;;;;;;;341.80;15.70;;;-0.30;96.30;;;;;;4936804;29;20427;-73
2021/01/05 09:17:28;;;;;;;282.97;14.60;;;-0.30;96.30;;;;;;4937095;29;20412;-73
2021/01/05 09:19:54;;;;;;;214.70;13.80;;;-0.40;96.30;;;;;;4937123;29;21025;-73
2021/01/05 09:22:24;;;;;;;394.37;16.07;;;-0.40;96.30;;;;;;4935727;29;20200;-74
2021/01/05 09:24:50;;;;;;;394.50;15.17;;;-0.40;96.30;;;;;;4936947;29;20543;-73
2021/01/05 09:27:15;;;;;;;433.23;18.43;;;-0.40;96.30;;;;;;4937004;29;20420;-73
2021/01/05 09:29:41;;;;;;;451.67;16.50;;;-0.40;96.30;;;;;;4937047;29;20407;-73
2021/01/05 09:32:06;;;;;;;370.87;14.03;;;-0.40;96.30;;;;;;4936226;29;20202;-73
2021/01/05 09:34:32;;;;;;;271.13;15.47;;;-0.40;96.30;;;;;;4937073;29;20182;-73
2021/01/05 09:36:57;;;;;;;338.63;15.10;;;-0.40;96.30;;;;;;4935617;29;20659;-73
2021/01/05 09:39:23;;;;;;;279.80;14.53;;;-0.40;96.30;;;;;;4933969;29;20172;-73
2021/01/05 09:42:05;;;;;;;337.90;16.53;;;-0.40;96.30;;;;;;4934983;29;20258;-73
2021/01/05 09:44:31;;;;;;;171.33;13.13;;;-0.30;96.30;;;;;;4936089;29;20900;-73
2021/01/05 09:46:59;;;;;;;189.00;11.83;;;-0.30;96.30;;;;;;4935650;29;20843;-73
2021/01/05 09:49:26;;;;;;;210.33;12.17;;;-0.30;96.30;;;;;;4936566;29;20847;-72
2021/01/05 09:51:56;;;;;;;221.20;12.47;;;-0.30;96.30;;;;;;4936151;29;20507;-73
2021/01/05 09:54:22;;;;;;;184.23;10.93;;;-0.30;96.30;;;;;;4934859;29;20427;-73
2021/01/05 09:56:55;;;;;;;286.10;14.70;;;-0.30;96.30;;;;;;4936466;29;20762;-73
2021/01/05 09:59:23;;;;;;;413.60;16.87;;;-0.40;96.30;;;;;;4936408;29;20186;-73
2021/01/05 10:01:49;;;;;;;320.23;14.90;;;-0.40;96.30;;;;;;4935983;29;20830;-73
2021/01/05 10:04:15;;;;;;;665.73;22.27;;;-0.40;96.30;;;;;;4936011;29;20415;-73
2021/01/05 10:06:40;;;;;;;402.30;17.87;;;-0.30;96.30;;;;;;4935322;29;20568;-73
2021/01/05 10:09:08;;;;;;;499.33;17.80;;;-0.30;96.30;;;;;;4936228;29;20462;-73
2021/01/05 10:11:35;;;;;;;361.43;13.97;;;-0.40;96.30;;;;;;4936123;29;20540;-73
2021/01/05 10:14:01;;;;;;;456.20;16.30;;;-0.40;96.30;;;;;;4935088;29;20423;-74
2021/01/05 10:16:27;;;;;;;484.70;17.00;;;-0.30;96.30;;;;;;4936075;29;21058;-73
2021/01/05 10:18:52;;;;;;;251.70;12.13;;;-0.40;96.30;;;;;;4936073;29;20242;-73
2021/01/05 10:21:18;;;;;;;235.27;12.57;;;-0.40;96.30;;;;;;4935813;29;20550;-73
2021/01/05 10:23:43;;;;;;;333.97;14.27;;;-0.40;96.30;;;;;;4935975;29;20182;-73
2021/01/05 10:26:10;;;;;;;300.40;13.63;;;-0.40;96.30;;;;;;4934601;29;20172;-72
2021/01/05 10:28:36;;;;;;;324.30;14.47;;;-0.30;96.30;;;;;;4935952;29;20183;-73
2021/01/05 10:31:03;;;;;;;535.50;18.37;;;-0.30;96.30;;;;;;4934890;29;20839;-73
2021/01/05 10:33:29;;;;;;;462.37;16.77;;;-0.20;96.30;;;;;;4935758;29;20423;-74
2021/01/05 10:35:54;;;;;;;288.03;13.60;;;-0.20;96.30;;;;;;4935479;29;20415;-73
2021/01/05 10:38:20;;;;;;;273.10;15.07;;;-0.20;96.30;;;;;;4935230;29;20426;-73
2021/01/05 10:40:45;;;;;;;197.73;10.97;;;-0.10;96.30;;;;;;4933036;29;20271;-73
2021/01/05 10:43:11;;;;;;;483.00;18.07;;;-0.20;96.30;;;;;;4934595;29;20175;-72
2021/01/05 10:45:40;;;;;;;326.80;14.27;;;-0.20;96.30;;;;;;4935002;29;20211;-72
2021/01/05 10:48:06;;;;;;;484.47;18.50;;;-0.30;96.30;;;;;;4935280;29;20172;-73
2021/01/05 10:50:32;;;;;;;97.20;8.70;;;-0.30;96.30;;;;;;4934003;29;20454;-72
2021/01/05 10:52:57;;;;;;;236.27;13.47;;;-0.30;96.30;;;;;;4934222;29;20908;-73
2021/01/05 10:55:23;;;;;;;160.60;10.90;;;-0.40;96.30;;;;;;4933925;29;20666;-73
2021/01/05 10:57:49;;;;;;;307.83;14.13;;;-0.30;96.30;;;;;;4935336;29;20183;-73
2021/01/05 11:00:17;;;;;;;346.50;16.40;;;-0.30;96.30;;;;;;4935080;29;20199;-74
2021/01/05 11:02:43;;;;;;;374.07;15.47;;;-0.40;96.30;;;;;;4935280;29;20419;-74
2021/01/05 11:05:14;;;;;;;284.70;12.70;;;-0.50;96.30;;;;;;4934734;29;20954;-74
2021/01/05 11:07:41;;;;;;;220.20;12.10;;;-0.50;96.30;;;;;;4933640;29;20202;-73
2021/01/05 11:10:09;;;;;;;311.90;14.83;;;-0.50;96.30;;;;;;4935083;29;20424;-72
2021/01/05 11:12:36;;;;;;;207.17;11.80;;;-0.50;96.30;;;;;;4933880;29;20419;-72
2021/01/05 11:15:02;;;;;;;276.17;13.03;;;-0.50;96.30;;;;;;4933731;29;20415;-73
2021/01/05 11:17:27;;;;;;;552.83;17.67;;;-0.60;96.30;;;;;;4934914;29;20506;-72
2021/01/05 11:19:53;;;;;;;468.73;16.27;;;-0.60;96.30;;;;;;4969778;23;20594;-81
2021/01/05 11:22:19;;;;;;;260.80;12.30;;;-0.50;96.30;;;;;;4936769;29;20190;-80
2021/01/05 11:24:45;;;;;;;287.17;12.87;;;-0.50;96.30;;;;;;4935735;29;20180;-80
2021/01/05 11:27:13;;;;;;;42.60;6.33;;;-0.50;96.30;;;;;;4935344;29;20420;-80
2021/01/05 11:29:39;;;;;;;79.80;7.83;;;-0.50;96.30;;;;;;4935672;29;20431;-80
2021/01/05 11:32:07;;;;;;;191.97;10.40;;;-0.60;96.30;;;;;;4935780;29;20415;-79
2021/01/05 11:34:33;;;;;;;192.87;9.20;;;-0.60;96.30;;;;;;4934067;29;20179;-79
2021/01/05 11:37:07;;;;;;;102.70;8.30;;;-0.70;96.30;;;;;;4936053;29;20407;-80
2021/01/05 11:39:33;;;;;;;165.33;9.87;;;-0.70;96.30;;;;;;4934524;29;20438;-79
2021/01/05 11:42:01;;;;;;;430.87;15.10;;;-0.70;96.30;;;;;;4936181;29;20495;-79
2021/01/05 11:44:27;;;;;;;235.23;10.40;;;-0.70;96.30;;;;;;4934344;29;20762;-80
2021/01/05 11:46:53;;;;;;;432.47;14.80;;;-0.70;96.30;;;;;;4936280;29;20418;-80
2021/01/05 11:49:18;;;;;;;289.77;13.37;;;-0.70;96.30;;;;;;4934710;29;20955;-81
2021/01/05 11:51:44;;;;;;;426.07;14.83;;;-0.60;96.30;;;;;;4936510;29;20416;-80
2021/01/05 11:54:10;;;;;;;105.10;9.90;;;-0.60;96.30;;;;;;4936176;29;20186;-80
2021/01/05 11:56:36;;;;;;;99.73;8.50;;;-0.60;96.30;;;;;;4940646;29;20188;-80
2021/01/05 11:59:02;;;;;;;53.43;7.70;;;-0.70;96.30;;;;;;4940427;29;20617;-80
2021/01/05 12:01:34;;;;;;;13.53;8.17;;;-0.70;96.30;;;;;;4941334;29;20553;-80
2021/01/05 12:03:59;;;;;;;10.93;6.80;;;-0.60;96.30;;;;;;4941150;29;20400;-80
2021/01/05 12:06:25;;;;;;;37.63;8.13;;;-0.60;96.30;;;;;;4938853;29;20494;-80
2021/01/05 12:08:51;;;;;;;11.73;6.63;;;-0.60;96.30;;;;;;4941075;29;20255;-80
2021/01/05 12:11:27;;;;;;;20.13;6.03;;;-0.60;96.30;;;;;;4941064;29;20183;-80
2021/01/05 12:13:53;;;;;;;36.57;7.23;;;-0.60;96.30;;;;;;4940499;29;20403;-80
2021/01/05 12:16:29;;;;;;;15.40;8.00;;;-0.70;96.30;;;;;;4946248;29;20982;-80
2021/01/05 12:18:55;;;;;;;14.67;7.10;;;-0.70;96.30;;;;;;4951225;29;20223;-80
2021/01/05 12:21:41;;;;;;;14.20;8.27;;;-0.70;96.30;;;;;;4944036;29;20458;-80
2021/01/05 12:24:11;;;;;;;14.53;7.90;;;-0.70;96.30;;;;;;4937772;29;20913;-81
2021/01/05 12:26:38;;;;;;;13.60;7.80;;;-0.70;96.30;;;;;;4938162;29;20502;-78
2021/01/05 12:29:07;;;;;;;13.37;7.03;;;-0.60;96.30;;;;;;4938208;29;20437;-79
2021/01/05 12:31:48;;;;;;;11.00;5.80;;;-0.60;96.30;;;;;;4926025;29;20515;-79
2021/01/05 12:34:15;;;;;;;15.60;7.73;;;-0.70;96.30;;;;;;4934819;29;20423;-79
2021/01/05 12:36:42;;;;;;;12.17;6.90;;;-0.70;96.30;;;;;;4937796;29;20821;-79
2021/01/05 12:39:13;;;;;;;10.67;7.00;;;-0.60;96.30;;;;;;4936387;29;20449;-79
2021/01/05 12:41:39;;;;;;;12.43;6.70;;;-0.60;96.30;;;;;;4937810;29;20985;-79
2021/01/05 12:44:07;;;;;;;8.83;6.10;;;-0.60;96.30;;;;;;4937491;29;20428;-79
2021/01/05 12:46:36;;;;;;;10.77;7.53;;;-0.50;96.30;;;;;;4935500;29;20520;-78
2021/01/05 12:49:02;;;;;;;11.43;5.97;;;-0.50;96.30;;;;;;4937107;29;20450;-79
2021/01/05 12:51:29;;;;;;;8.20;5.53;;;-0.50;96.30;;;;;;4937457;29;20412;-79
2021/01/05 12:53:54;;;;;;;15.30;6.93;;;-0.50;96.30;;;;;;4929048;29;20751;-79
2021/01/05 12:56:21;;;;;;;11.37;6.60;;;-0.50;96.30;;;;;;4936851;29;20426;-79
2021/01/05 12:58:46;;;;;;;6.70;5.57;;;-0.50;96.30;;;;;;4937592;29;20223;-79
2021/01/05 13:01:17;;;;;;;8.80;6.10;;;-0.50;96.30;;;;;;4924773;29;20456;-80
2021/01/05 13:03:43;;;;;;;11.27;7.20;;;-0.50;96.30;;;;;;4938329;29;21242;-80
2021/01/05 13:06:10;;;;;;;15.40;6.90;;;-0.40;96.30;;;;;;4930952;29;20413;-79
2021/01/05 13:08:36;;;;;;;13.20;6.90;;;-0.30;96.30;;;;;;4922863;29;20440;-79
2021/01/05 13:11:06;;;;;;;11.27;6.63;;;-0.40;96.30;;;;;;4927144;29;20493;-79
2021/01/05 13:13:32;;;;;;;9.57;5.67;;;-0.40;96.30;;;;;;4936279;29;20962;-79
2021/01/05 13:15:57;;;;;;;10.63;6.30;;;-0.50;96.30;;;;;;4936684;29;20412;-79
2021/01/05 13:18:23;;;;;;;8.50;5.93;;;-0.50;96.30;;;;;;4937451;29;20222;-79
2021/01/05 13:20:48;;;;;;;10.77;7.07;;;-0.40;96.30;;;;;;4937388;29;20669;-80
2021/01/05 13:23:14;;;;;;;10.33;6.90;;;-0.50;96.30;;;;;;4937459;29;20259;-79
2021/01/05 13:25:40;;;;;;;13.50;6.77;;;-0.50;96.30;;;;;;4936427;29;20250;-80
2021/01/05 13:28:06;;;;;;;13.23;6.73;;;-0.60;96.30;;;;;;4942710;28;20171;-80
2021/01/05 13:30:31;;;;;;;8.97;7.00;;;-0.60;96.30;;;;;;4949738;29;20461;-80
2021/01/05 13:32:57;;;;;;;11.20;6.47;;;-0.60;96.30;;;;;;4932566;29;20179;-80
2021/01/05 13:35:22;;;;;;;10.87;6.80;;;-0.70;96.30;;;;;;4940267;29;20179;-81
2021/01/05 13:37:48;;;;;;;8.90;6.40;;;-0.60;96.30;;;;;;4942372;29;20221;-80
2021/01/05 13:40:13;;;;;;;11.30;6.70;;;-0.70;96.30;;;;;;4935109;29;20691;-80
2021/01/05 13:42:40;;;;;;;9.23;6.10;;;-0.70;96.30;;;;;;4947809;29;20176;-81
2021/01/05 13:45:06;;;;;;;9.43;7.23;;;-0.70;96.30;;;;;;4934553;29;20631;-80
2021/01/05 13:47:32;;;;;;;6.33;5.00;;;-0.70;96.30;;;;;;4941123;29;20791;-80
2021/01/05 13:49:57;;;;;;;9.57;5.87;;;-0.70;96.30;;;;;;4937646;29;20443;-80
2021/01/05 13:52:27;;;;;;;9.33;5.60;;;-0.80;96.30;;;;;;4942948;29;20182;-80
2021/01/05 13:54:53;;;;;;;8.53;5.50;;;-0.80;96.30;;;;;;4928284;29;20187;-80
2021/01/05 13:57:25;;;;;;;7.80;5.77;;;-0.80;96.30;;;;;;4930509;29;20420;-79
2021/01/05 13:59:51;;;;;;;10.03;5.33;;;-0.80;96.30;;;;;;4928100;29;20530;-80
2021/01/05 14:02:19;;;;;;;8.50;5.63;;;-0.80;96.30;;;;;;4942779;29;20443;-80
2021/01/05 14:04:46;;;;;;;12.77;6.03;;;-0.80;96.30;;;;;;4936111;29;20950;-81
2021/01/05 14:07:12;;;;;;;7.13;5.37;;;-0.90;96.30;;;;;;4938692;29;20407;-82
2021/01/05 14:09:39;;;;;;;8.83;5.00;;;-0.90;96.30;;;;;;4943956;29;20788;-83
2021/01/05 14:12:05;;;;;;;8.17;5.50;;;-0.90;96.30;;;;;;4935317;29;20416;-81
2021/01/05 14:14:31;;;;;;;18.73;7.17;;;-0.90;96.30;;;;;;4935159;29;20420;-81
2021/01/05 14:16:58;;;;;;;9.63;6.07;;;-0.90;96.30;;;;;;4937457;28;20427;-80
2021/01/05 14:19:26;;;;;;;9.07;5.00;;;-0.90;96.30;;;;;;4954405;28;20987;-80
2021/01/05 14:21:52;;;;;;;7.80;4.90;;;-0.90;96.30;;;;;;4943926;28;20463;-80
2021/01/05 14:24:23;;;;;;;9.23;6.07;;;-1.00;96.30;;;;;;4930521;29;20831;-80
2021/01/05 14:26:50;;;;;;;8.80;6.13;;;-1.00;96.30;;;;;;4938211;29;20434;-80
2021/01/05 14:29:17;;;;;;;10.87;5.33;;;-1.00;96.30;;;;;;4935468;28;20435;-81
2021/01/05 14:31:55;;;;;;;6.50;4.87;;;-1.00;96.30;;;;;;4940267;29;20545;-81
2021/01/05 14:34:21;;;;;;;8.00;5.37;;;-1.00;96.30;;;;;;4934229;29;20431;-81
2021/01/05 14:36:47;;;;;;;9.07;5.70;;;-1.00;96.30;;;;;;4937571;29;20416;-80
2021/01/05 14:39:13;;;;;;;8.03;4.47;;;-1.00;96.30;;;;;;4921103;29;20493;-81
2021/01/05 14:41:42;;;;;;;8.43;5.20;;;-1.00;96.30;;;;;;4941279;29;20614;-81
2021/01/05 14:44:16;;;;;;;4.77;3.73;;;-1.00;96.30;;;;;;4939811;29;20488;-81
2021/01/05 14:46:42;;;;;;;5.83;4.50;;;-1.10;96.30;;;;;;4956865;28;20775;-80
2021/01/05 14:49:08;;;;;;;8.83;4.73;;;-1.10;96.30;;;;;;4941120;29;20436;-80
2021/01/05 14:51:36;;;;;;;3.70;3.10;;;-1.10;96.30;;;;;;4938195;29;20187;-82
2021/01/05 14:54:02;;;;;;;5.63;3.97;;;-1.10;96.30;;;;;;4934218;29;20427;-81
2021/01/05 14:56:28;;;;;;;5.97;4.67;;;-1.10;96.30;;;;;;4937141;29;20446;-82
2021/01/05 14:58:55;;;;;;;5.83;4.43;;;-1.20;96.30;;;;;;4952067;28;20435;-81
2021/01/05 15:01:20;;;;;;;9.23;4.80;;;-1.20;96.30;;;;;;4956519;28;20211;-82
2021/01/05 15:03:47;;;;;;;7.50;4.70;;;-1.20;96.30;;;;;;4921036;29;20487;-82
2021/01/05 15:06:20;;;;;;;5.57;4.30;;;-1.20;96.30;;;;;;4941088;29;20263;-83
2021/01/05 15:08:46;;;;;;;6.40;4.37;;;-1.20;96.30;;;;;;4932206;29;20458;-83
2021/01/05 15:11:14;;;;;;;7.70;4.70;;;-1.20;96.30;;;;;;4947072;29;20515;-83
2021/01/05 15:13:39;;;;;;;7.90;4.40;;;-1.30;96.30;;;;;;4932145;29;20203;-81
2021/01/05 15:16:05;;;;;;;8.40;5.13;;;-1.30;96.30;;;;;;4940300;29;21072;-83
2021/01/05 15:18:30;;;;;;;5.50;4.17;;;-1.30;96.30;;;;;;4945462;29;20223;-81
2021/01/05 15:20:56;;;;;;;7.63;5.00;;;-1.30;96.30;;;;;;4932431;29;20215;-83
2021/01/05 15:23:21;;;;;;;6.63;4.80;;;-1.30;96.30;;;;;;4948692;29;20213;-83
2021/01/05 15:25:47;;;;;;;7.70;4.70;;;-1.30;96.30;;;;;;4924630;29;20184;-82
2021/01/05 15:28:12;;;;;;;9.50;5.30;;;-1.30;96.30;;;;;;4937481;29;20203;-81
2021/01/05 15:30:38;;;;;;;8.23;4.70;;;-1.30;96.30;;;;;;4943373;29;20238;-81
2021/01/05 15:33:03;;;;;;;6.73;4.10;;;-1.30;96.30;;;;;;4947474;29;20555;-80
2021/01/05 15:35:29;;;;;;;8.00;4.77;;;-1.30;96.30;;;;;;4934279;29;20189;-81
2021/01/05 15:37:54;;;;;;;7.70;4.23;;;-1.30;96.30;;;;;;4939012;29;20179;-80
2021/01/05 15:40:20;;;;;;;6.63;4.30;;;-1.30;96.30;;;;;;4930829;29;20703;-72
2021/01/05 15:42:45;;;;;;;8.97;4.30;;;-1.30;96.30;;;;;;4930022;29;20195;-74
2021/01/05 15:45:11;;;;;;;5.03;4.33;;;-1.30;96.30;;;;;;4942505;29;20187;-77
2021/01/05 15:47:37;;;;;;;6.90;4.50;;;-1.30;96.30;;;;;;4934757;29;20693;-77
2021/01/05 15:50:03;;;;;;;6.83;5.03;;;-1.30;96.30;;;;;;4926918;29;20730;-77
2021/01/05 15:52:28;;;;;;;6.40;4.67;;;-1.40;96.30;;;;;;4940424;28;20187;-77
2021/01/05 15:54:54;;;;;;;7.23;4.50;;;-1.30;96.30;;;;;;4935595;29;20470;-77
2021/01/05 15:57:19;;;;;;;7.43;5.03;;;-1.30;96.30;;;;;;4938643;29;20183;-77
2021/01/05 15:59:44;;;;;;;7.73;5.07;;;-1.30;96.30;;;;;;4937376;29;20687;-76
2021/01/05 16:02:12;;;;;;;6.63;4.57;;;-1.30;96.30;;;;;;4941115;29;20309;-76
2021/01/05 16:04:37;;;;;;;6.27;4.20;;;-1.40;96.30;;;;;;4935191;29;20190;-78
2021/01/05 16:07:09;;;;;;;7.77;4.17;;;-1.30;96.30;;;;;;4932175;29;20427;-77
2021/01/05 16:09:35;;;;;;;6.50;4.10;;;-1.40;96.30;;;;;;4929958;29;20207;-76
2021/01/05 16:12:00;;;;;;;6.30;4.50;;;-1.40;96.30;;;;;;4929665;29;20447;-77
2021/01/05 16:14:26;;;;;;;6.60;4.13;;;-1.40;96.30;;;;;;4941628;29;20273;-77
2021/01/05 16:16:53;;;;;;;6.40;4.37;;;-1.40;96.30;;;;;;4944355;29;20542;-77
2021/01/05 16:19:20;;;;;;;7.00;4.70;;;-1.40;96.30;;;;;;4939166;28;20299;-76
2021/01/05 16:21:50;;;;;;;6.47;4.63;;;-1.40;96.30;;;;;;4942080;29;20466;-77
2021/01/05 16:24:16;;;;;;;5.13;3.77;;;-1.40;96.30;;;;;;4927482;29;20802;-78
2021/01/05 16:26:42;;;;;;;5.10;4.20;;;-1.40;96.30;;;;;;4929570;29;20420;-78
2021/01/05 16:29:07;;;;;;;4.90;3.70;;;-1.40;96.30;;;;;;4936195;29;20880;-76
2021/01/05 16:31:48;;;;;;;5.97;4.23;;;-1.40;96.30;;;;;;4931532;29;20195;-76
2021/01/05 16:34:13;;;;;;;7.17;4.90;;;-1.40;96.30;;;;;;4924944;29;20188;-76